Prescott Valley, AZ (86312)

3:50 AM MST on February 10, 2016 (GMT -0700)
Naklas | | Change Station
CLOSE
Current Station
Personal Weather Station
Location: Prescott Valley, AZ
Elevation: 4976 ft
Nearby Weather Stations

Elev 4976 ft 34.62 °N, 112.31 °W | Updated 60 seconds ago

Partly Cloudy
Partly Cloudy
32.9 °F
Feels Like 33 °F
N
1.6
Wind Variable Wind from NW
Gusts 3.1 mph

Today
High -- | Low -- °F
--% Chance of Precip.
Yesterday
High -- | Low -- °F
Precip. -- in
Pressure 30.25 in
Visibility 10.0 miles
Clouds Clear
Windchill 33 °F
Dew Point 17 °F
Humidity 51%
Rainfall 0.00 in
Snow Depth Not available.
7:20 AM 6:07 PM
Waxing Crescent, 5% visible
METAR KPRC 100953Z 20005KT 10SM CLR 00/M07 A3036 RMK AO2 SLP241 T00001072
Pressure 30.25 in
Visibility 10.0 miles
Clouds Clear
Windchill 33 °F
Dew Point 17 °F
Humidity 51%
Rainfall 0.00 in
Snow Depth Not available.
7:20 AM 6:07 PM
Waxing Crescent, 5% visible
METAR KPRC 100953Z 20005KT 10SM CLR 00/M07 A3036 RMK AO2 SLP241 T00001072

10-Day Weather Forecast

Almanac

Astronomy

Feb. 10, 2016 Rise Set
Actual Time
Civil Twilight
Nautical Twilight
Astronomical Twilight
Moon
Length of Visible Light
Length of Day
Tomorrow will be .
, % of the Moon is Illuminated

Today's Extremes

State Highs State Lows

Community

WunderPhotos

Upload Photos

1,891,830 photos uploaded!

WunderBlog® & News

Nearby

Air Quality

  Air Quality AQ Index Pollutant
Not available.

Snow Depth

Station Depth Elevation

Earthquake Activity

City Distance Mag. Time & Date
Minimum magnitude displayed is 2.5.

Coastal Water Temperatures

Place Temperature

Stations

Nearby Weather Stations

Station Location Temp. Windchill Dew Point Humidity Wind Precip. Elev Updated Type
                   

Watches & Warnings

There are currently no watches in effect.